Dewitt Spain (M01)
Memphis, TN
Field Elevation: 224
Lat: 35°12.04N  Long: 90°03.24W
CTAF/Unicom Freq: 122.7000
   
     For Weather-by-Phone, call 901-354-9296
Weather Advisories
9/20/2014 17:57 Z
Altimeter 30.06" Hg
Wind 230° @ 4 KT
Gusts --
Visibility 10 SM
Ceiling --
Temperature 29° C (84° F)
Dewpoint 23° C (73° F)
Relative Humidity 67%
Density Altitude 1,800 feet
Condensation Altitude 3,600 feet
Heat Index 32° C (90° F)
  Wind and Runways
Indicated Runway = 17
History
 
 
More Info
All DigiWx sites map
NOAA Forecast
 
Airport IQ 5010
(2M8) Charles W. Baker Airport
(3M3) Collegedale Muni
 
about DigiWx
 
FAA Disclaimer: The data displayed is for advisory purposes only and is not to be used for flight planning or operations. For official data, please call 901-354-9296 to hear the current automated AWOS voice message.
  METAR M01 201757Z AUTO 23004KT 10SM 29/23 A3006